createdAt,value
2019-05-17T00:04:10.089Z,93.29
2019-05-17T00:06:40.346Z,93.38
2019-05-17T00:09:10.278Z,93.44
2019-05-17T00:11:40.211Z,93.89
2019-05-17T00:14:10.138Z,93.81
2019-05-17T00:16:40.077Z,92.86
2019-05-17T00:19:10.315Z,93.04
2019-05-17T00:21:40.256Z,92.87
2019-05-17T00:24:10.173Z,93.29
2019-05-17T00:26:40.114Z,93.59
2019-05-17T00:29:10.042Z,93.14
2019-05-17T00:34:19.636Z,92.71
2019-05-17T00:36:49.572Z,93.03
2019-05-17T00:39:19.494Z,93.17
2019-05-17T00:41:49.427Z,93.45
2019-05-17T00:44:19.689Z,92.85
2019-05-17T00:49:28.951Z,93.91
2019-05-17T00:51:58.891Z,93.89
2019-05-17T00:54:28.813Z,94.11
2019-05-17T00:56:58.751Z,93.77
2019-05-17T00:59:28.664Z,93.93
2019-05-17T01:04:37.940Z,93.00
2019-05-17T01:07:07.880Z,92.81
2019-05-17T01:09:37.811Z,92.42
2019-05-17T01:12:07.739Z,92.67
2019-05-17T01:14:37.653Z,92.20
2019-05-17T01:17:07.911Z,91.98
2019-05-17T01:19:37.836Z,92.24
2019-05-17T01:22:07.779Z,92.67
2019-05-17T01:24:37.694Z,93.34
2019-05-17T01:27:07.628Z,92.55
2019-05-17T01:29:37.580Z,92.54
2019-05-17T01:32:17.194Z,92.29
2019-05-17T01:34:46.910Z,92.15
2019-05-17T01:37:17.132Z,92.24
2019-05-17T01:39:46.831Z,92.41
2019-05-17T01:42:17.206Z,92.80
2019-05-17T01:44:47.201Z,93.12
2019-05-17T01:47:16.684Z,93.30
2019-05-17T01:49:46.945Z,93.44
2019-05-17T01:52:16.739Z,93.68
2019-05-17T01:54:46.974Z,93.43
2019-05-17T01:57:16.845Z,93.32
2019-05-17T01:59:46.693Z,93.08
2019-05-17T02:02:16.413Z,93.25
2019-05-17T02:04:46.769Z,92.81
2019-05-17T02:07:17.286Z,92.93
2019-05-17T02:09:47.710Z,92.69
2019-05-17T02:12:17.327Z,93.25
2019-05-17T02:14:46.747Z,93.50
2019-05-17T02:17:17.444Z,93.61
2019-05-17T02:19:46.560Z,94.05
2019-05-17T02:22:16.733Z,93.91
2019-05-17T02:24:46.430Z,93.96
2019-05-17T02:27:15.753Z,94.74
2019-05-17T02:29:46.038Z,94.14
2019-05-17T02:32:15.985Z,94.04
2019-05-17T02:34:46.183Z,94.31
2019-05-17T02:37:16.122Z,94.02
2019-05-17T02:39:58.377Z,93.89
2019-05-17T02:42:15.998Z,93.77
2019-05-17T02:44:46.263Z,94.19
2019-05-17T02:47:16.187Z,93.77
2019-05-17T02:49:46.126Z,93.30
2019-05-17T02:52:16.050Z,93.49
2019-05-17T02:54:45.976Z,93.77
2019-05-17T02:57:15.931Z,93.34
2019-05-17T02:59:45.843Z,93.40
2019-05-17T03:02:15.802Z,93.21
2019-05-17T03:04:45.758Z,93.23
2019-05-17T03:07:15.685Z,92.93
2019-05-17T03:09:45.677Z,93.01
2019-05-17T03:12:15.891Z,93.92
2019-05-17T03:14:45.830Z,94.37
2019-05-17T03:17:15.764Z,94.17
2019-05-17T03:19:45.718Z,93.75
2019-05-17T03:22:15.953Z,93.67
2019-05-17T03:24:45.930Z,94.24
2019-05-17T03:27:15.851Z,94.60
2019-05-17T03:29:45.792Z,94.64
2019-05-17T03:32:17.640Z,94.73
2019-05-17T03:34:45.932Z,94.68
2019-05-17T03:37:16.514Z,95.45
2019-05-17T03:39:45.786Z,94.90
2019-05-17T03:42:15.705Z,94.85
2019-05-17T03:44:45.636Z,95.36
2019-05-17T03:47:15.906Z,95.40
2019-05-17T03:49:46.121Z,95.32
2019-05-17T03:52:16.073Z,95.24
2019-05-17T03:54:46.008Z,95.18
2019-05-17T03:57:15.929Z,95.31
2019-05-17T03:59:46.210Z,95.24
2019-05-17T04:02:16.126Z,94.94
2019-05-17T04:04:46.413Z,94.90
2019-05-17T04:07:16.348Z,94.81
2019-05-17T04:09:46.301Z,94.37
2019-05-17T04:12:16.579Z,94.29
2019-05-17T04:14:46.785Z,94.63
2019-05-17T04:17:16.725Z,94.96
2019-05-17T04:19:46.933Z,95.32
2019-05-17T04:22:16.863Z,94.84
2019-05-17T04:24:47.160Z,94.75
2019-05-17T04:27:17.086Z,95.01
2019-05-17T04:29:47.021Z,95.23
2019-05-17T04:32:16.978Z,95.47
2019-05-17T04:34:47.220Z,95.34
2019-05-17T04:37:17.158Z,94.67
2019-05-17T04:39:47.089Z,94.71
2019-05-17T04:42:17.368Z,95.02
2019-05-17T04:44:47.307Z,95.57
2019-05-17T04:47:17.505Z,94.82
2019-05-17T04:49:47.718Z,95.01
2019-05-17T04:52:17.647Z,95.71
2019-05-17T04:54:47.564Z,95.87
2019-05-17T04:57:17.765Z,95.67
2019-05-17T04:59:47.687Z,95.45
2019-05-17T05:02:17.647Z,95.28
2019-05-17T05:04:47.567Z,95.50
2019-05-17T05:07:17.503Z,95.64
2019-05-17T05:09:47.430Z,95.21
2019-05-17T05:12:17.370Z,95.05
2019-05-17T05:14:47.563Z,95.05
2019-05-17T05:17:17.782Z,95.25
2019-05-17T05:19:47.716Z,95.38
2019-05-17T05:22:17.833Z,95.24
2019-05-17T05:24:47.564Z,94.91
2019-05-17T05:27:17.500Z,94.65
2019-05-17T05:29:47.543Z,94.34
2019-05-17T05:32:17.691Z,94.13
2019-05-17T05:34:47.620Z,93.24
2019-05-17T05:37:20.121Z,93.22
2019-05-17T05:39:47.507Z,92.82
2019-05-17T05:42:17.418Z,93.04
2019-05-17T05:44:47.652Z,93.05
2019-05-17T05:47:17.616Z,92.70
2019-05-17T05:49:47.821Z,92.61
2019-05-17T05:52:17.738Z,91.85
2019-05-17T05:54:47.668Z,92.17
2019-05-17T05:57:17.936Z,91.93
2019-05-17T05:59:48.108Z,91.78
2019-05-17T06:02:18.044Z,91.00
2019-05-17T06:04:48.298Z,91.24
2019-05-17T06:07:18.843Z,91.03
2019-05-17T06:09:48.769Z,90.79
2019-05-17T06:12:24.809Z,90.58
2019-05-17T06:14:49.367Z,90.55
2019-05-17T06:17:21.482Z,90.35
2019-05-17T06:19:51.562Z,89.78
2019-05-17T06:22:19.514Z,89.04
2019-05-17T06:24:51.869Z,89.32
2019-05-17T06:27:21.402Z,89.50
2019-05-17T06:29:51.499Z,88.71
2019-05-17T06:32:22.526Z,88.78
2019-05-17T06:34:51.466Z,89.02
2019-05-17T06:37:19.454Z,88.78
2019-05-17T06:39:49.378Z,89.33
2019-05-17T06:42:21.515Z,88.45
2019-05-17T06:44:49.252Z,87.56
2019-05-17T06:47:19.237Z,87.35
2019-05-17T06:49:50.620Z,87.85
2019-05-17T06:52:19.098Z,87.65
2019-05-17T06:54:49.025Z,87.37
2019-05-17T06:57:18.976Z,87.15
2019-05-17T06:59:49.238Z,86.96
2019-05-17T07:02:19.803Z,86.84
2019-05-17T07:04:50.803Z,87.17
2019-05-17T07:07:20.699Z,87.18
2019-05-17T07:09:49.748Z,87.00
2019-05-17T07:12:20.196Z,87.13
2019-05-17T07:14:50.703Z,86.99
2019-05-17T07:17:19.767Z,86.66
2019-05-17T07:19:50.724Z,86.02
2019-05-17T07:22:21.194Z,85.74
2019-05-17T07:24:50.233Z,86.19
2019-05-17T07:27:19.420Z,86.00
2019-05-17T07:29:49.770Z,85.85
2019-05-17T07:32:19.645Z,85.54
2019-05-17T07:34:50.772Z,86.15
2019-05-17T07:37:19.660Z,84.55
2019-05-17T07:40:00.467Z,85.07
2019-05-17T07:42:19.598Z,83.97
2019-05-17T07:44:49.767Z,83.66
2019-05-17T07:47:20.298Z,83.16
2019-05-17T07:49:49.852Z,83.67
2019-05-17T07:52:20.641Z,83.64
2019-05-17T07:54:50.859Z,83.17
2019-05-17T07:57:20.677Z,81.54
2019-05-17T07:59:50.757Z,81.59
2019-05-17T08:02:19.986Z,80.98
2019-05-17T08:04:50.206Z,79.64
2019-05-17T08:07:19.887Z,78.74
2019-05-17T08:09:50.616Z,78.14
2019-05-17T08:12:20.107Z,78.49
2019-05-17T08:14:50.400Z,78.59
2019-05-17T08:17:20.066Z,78.43
2019-05-17T08:19:50.010Z,77.27
2019-05-17T08:22:20.140Z,75.52
2019-05-17T08:24:49.786Z,74.54
2019-05-17T08:27:20.240Z,75.23
2019-05-17T08:29:50.083Z,74.54
2019-05-17T08:32:20.795Z,75.52
2019-05-17T08:34:51.862Z,75.18
2019-05-17T08:37:20.418Z,73.77
2019-05-17T08:39:50.494Z,72.47
2019-05-17T08:42:20.532Z,70.91
2019-05-17T08:44:50.062Z,70.29
2019-05-17T08:47:20.989Z,70.44
2019-05-17T08:49:49.941Z,69.34
2019-05-17T08:52:20.084Z,68.82
2019-05-17T08:54:49.827Z,68.11
2019-05-17T08:57:20.481Z,66.49
2019-05-17T08:59:49.974Z,65.53
2019-05-17T09:02:20.072Z,64.91
2019-05-17T09:04:49.960Z,63.52
2019-05-17T09:07:20.390Z,64.48
2019-05-17T09:09:50.295Z,65.12
2019-05-17T09:12:20.632Z,65.08
2019-05-17T09:14:49.755Z,64.81
2019-05-17T09:17:19.553Z,67.28
2019-05-17T09:19:50.940Z,68.39
2019-05-17T09:22:19.881Z,68.28
2019-05-17T09:24:49.959Z,67.56
2019-05-17T09:27:19.938Z,66.19
2019-05-17T09:29:49.843Z,66.13
2019-05-17T09:32:20.158Z,66.41
2019-05-17T09:34:49.941Z,66.27
2019-05-17T09:37:22.383Z,67.00
2019-05-17T09:39:49.617Z,68.15
2019-05-17T09:42:20.981Z,66.90
2019-05-17T09:44:49.740Z,65.07
2019-05-17T09:47:20.627Z,64.61
2019-05-17T09:49:50.130Z,64.55
2019-05-17T09:52:20.002Z,65.06
2019-05-17T09:54:50.417Z,64.34
2019-05-17T09:57:20.488Z,64.42
2019-05-17T09:59:49.653Z,63.96
2019-05-17T10:02:20.314Z,64.32
2019-05-17T10:04:50.225Z,65.88
2019-05-17T10:07:20.772Z,65.61
2019-05-17T10:09:50.201Z,65.14
2019-05-17T10:12:20.276Z,65.73
2019-05-17T10:14:49.802Z,65.27
2019-05-17T10:17:21.177Z,65.90
2019-05-17T10:19:49.556Z,64.72
2019-05-17T10:22:20.040Z,64.04
2019-05-17T10:24:49.811Z,64.37
2019-05-17T10:27:19.795Z,65.29
2019-05-17T10:29:50.207Z,65.37
2019-05-17T10:32:20.499Z,65.94
2019-05-17T10:34:49.641Z,66.54
2019-05-17T10:37:20.386Z,66.88
2019-05-17T10:39:50.283Z,67.76
2019-05-17T10:42:20.987Z,68.16
2019-05-17T10:44:51.446Z,68.02
2019-05-17T10:47:19.620Z,68.86
2019-05-17T10:49:49.714Z,69.19
2019-05-17T10:52:20.338Z,68.26
2019-05-17T10:54:49.515Z,68.42
2019-05-17T10:57:19.574Z,67.82
2019-05-17T10:59:49.946Z,68.30
2019-05-17T11:02:19.847Z,67.68
2019-05-17T11:04:50.658Z,67.48
2019-05-17T11:07:20.034Z,67.08
2019-05-17T11:09:50.898Z,66.41
2019-05-17T11:12:19.445Z,65.51
2019-05-17T11:14:56.076Z,65.62
2019-05-17T11:17:19.905Z,64.20
2019-05-17T11:19:49.841Z,65.41
2019-05-17T11:22:20.042Z,65.56
2019-05-17T11:24:50.256Z,66.10
2019-05-17T11:27:20.214Z,65.76
2019-05-17T11:29:50.137Z,66.20
2019-05-17T11:32:20.097Z,66.50
2019-05-17T11:34:50.236Z,66.11
2019-05-17T11:37:19.958Z,66.00
2019-05-17T11:39:49.900Z,64.36
2019-05-17T11:42:20.169Z,64.30
2019-05-17T11:44:50.098Z,63.28
2019-05-17T11:47:20.040Z,63.07
2019-05-17T11:49:49.985Z,64.12
2019-05-17T11:52:19.929Z,63.93
2019-05-17T11:54:49.907Z,63.83
2019-05-17T11:57:19.843Z,63.89
2019-05-17T11:59:50.014Z,63.36
2019-05-17T12:02:21.599Z,62.41
2019-05-17T12:04:49.881Z,63.23
2019-05-17T12:07:19.824Z,62.27
2019-05-17T12:09:49.774Z,62.67
2019-05-17T12:12:19.720Z,61.79
2019-05-17T12:14:49.667Z,61.25
2019-05-17T12:17:19.620Z,61.85
2019-05-17T12:19:49.544Z,61.88
2019-05-17T12:22:19.484Z,60.93
2019-05-17T12:24:49.417Z,61.14
2019-05-17T12:27:19.358Z,60.51
2019-05-17T12:29:49.280Z,60.49
2019-05-17T12:32:19.221Z,60.78
2019-05-17T12:34:49.164Z,60.84
2019-05-17T12:37:19.079Z,61.52
2019-05-17T12:39:49.303Z,59.31
2019-05-17T12:42:19.246Z,58.67
2019-05-17T12:44:49.171Z,59.40
2019-05-17T12:47:19.115Z,60.01
2019-05-17T12:49:49.054Z,61.69
2019-05-17T12:52:18.988Z,61.56
2019-05-17T12:54:48.912Z,62.18
2019-05-17T12:57:18.856Z,62.77
2019-05-17T12:59:49.119Z,62.47
2019-05-17T13:02:19.058Z,62.40
2019-05-17T13:04:49.069Z,62.87
2019-05-17T13:07:19.031Z,62.88
2019-05-17T13:09:48.946Z,61.80
2019-05-17T13:12:18.885Z,61.15
2019-05-17T13:14:48.803Z,61.38
2019-05-17T13:17:18.758Z,58.97
2019-05-17T13:19:48.677Z,60.19
2019-05-17T13:22:18.615Z,59.62
2019-05-17T13:24:48.538Z,59.66
2019-05-17T13:27:18.480Z,58.41
2019-05-17T13:29:48.401Z,59.15
2019-05-17T13:32:18.346Z,59.41
2019-05-17T13:34:48.283Z,59.33
2019-05-17T13:37:18.222Z,59.99
2019-05-17T13:39:48.138Z,58.74
2019-05-17T13:42:18.077Z,59.50
2019-05-17T13:44:48.024Z,58.76
2019-05-17T13:49:57.289Z,56.71
2019-05-17T13:52:27.224Z,57.28
2019-05-17T13:54:57.149Z,57.99
2019-05-17T13:57:27.081Z,58.00
2019-05-17T13:59:57.011Z,58.46
2019-05-17T14:02:26.958Z,57.95
2019-05-17T14:04:56.873Z,56.93
2019-05-17T14:07:27.127Z,58.11
2019-05-17T14:09:57.336Z,58.05
2019-05-17T14:12:27.655Z,57.59
2019-05-17T14:14:58.248Z,58.30
2019-05-17T14:17:28.173Z,59.38
2019-05-17T14:19:58.123Z,58.50
2019-05-17T14:22:28.340Z,58.54
2019-05-17T14:24:58.252Z,58.63
2019-05-17T14:27:28.236Z,58.79
2019-05-17T14:29:58.120Z,58.14
2019-05-17T14:32:28.057Z,57.17
2019-05-17T14:34:57.990Z,58.06
2019-05-17T14:37:27.937Z,58.42
2019-05-17T14:39:58.127Z,57.21
2019-05-17T14:42:28.077Z,58.21
2019-05-17T14:44:58.006Z,57.87
2019-05-17T14:47:27.930Z,57.12
2019-05-17T14:49:57.880Z,57.29
2019-05-17T14:52:28.153Z,56.82
2019-05-17T14:54:58.082Z,56.81
2019-05-17T14:57:28.030Z,57.30
2019-05-17T14:59:57.951Z,57.38
2019-05-17T15:02:27.900Z,58.09
2019-05-17T15:04:57.833Z,57.85
2019-05-17T15:07:27.795Z,57.56
2019-05-17T15:09:57.999Z,55.86
2019-05-17T15:12:29.000Z,55.13
2019-05-17T15:14:58.149Z,55.39
2019-05-17T15:17:28.383Z,54.59
2019-05-17T15:19:58.340Z,55.47
2019-05-17T15:22:28.277Z,55.62
2019-05-17T15:24:58.210Z,56.31
2019-05-17T15:30:07.230Z,55.89
2019-05-17T15:32:37.565Z,55.75
2019-05-17T15:35:07.492Z,55.85
2019-05-17T15:37:37.682Z,55.73
2019-05-17T15:40:07.615Z,55.14
2019-05-17T15:42:44.227Z,56.38
2019-05-17T15:45:07.494Z,55.60
2019-05-17T15:47:37.764Z,55.96
2019-05-17T15:52:47.323Z,56.54
2019-05-17T15:57:56.595Z,56.03
2019-05-17T16:00:26.506Z,55.03
2019-05-17T16:02:56.456Z,55.85
2019-05-17T16:08:05.800Z,56.40
2019-05-17T16:10:35.760Z,58.27
2019-05-17T16:13:05.699Z,56.75
2019-05-17T16:15:35.903Z,57.45
2019-05-17T16:18:06.216Z,57.36
2019-05-17T16:20:36.145Z,57.81
2019-05-17T16:23:06.357Z,57.77
2019-05-17T16:25:36.312Z,57.26
2019-05-17T16:28:06.586Z,57.20
2019-05-17T16:30:36.820Z,56.26
2019-05-17T16:33:06.766Z,56.67
2019-05-17T16:35:36.694Z,56.71
2019-05-17T16:38:06.642Z,57.17
2019-05-17T16:40:36.560Z,56.43
2019-05-17T16:43:17.516Z,56.92
2019-05-17T16:45:36.996Z,55.86
2019-05-17T16:48:06.950Z,55.61
2019-05-17T16:50:37.235Z,56.40
2019-05-17T16:55:46.493Z,57.06
2019-05-17T16:58:16.423Z,56.84
2019-05-17T17:00:46.619Z,56.75
2019-05-17T17:03:16.576Z,56.22
2019-05-17T17:08:26.194Z,56.71
2019-05-17T17:10:56.124Z,56.81
2019-05-17T17:13:33.122Z,57.61
2019-05-17T17:15:56.360Z,57.96
2019-05-17T17:21:06.305Z,58.91
2019-05-17T17:23:36.517Z,59.44
2019-05-17T17:26:06.448Z,59.95
2019-05-17T17:28:36.385Z,59.95
2019-05-17T17:31:06.685Z,59.58
2019-05-17T17:36:19.215Z,58.95
2019-05-17T17:38:45.892Z,59.06
2019-05-17T17:41:15.811Z,60.08
2019-05-17T17:46:25.335Z,61.49
2019-05-17T17:48:55.285Z,61.43
2019-05-17T17:51:25.231Z,61.21
2019-05-17T17:53:55.675Z,60.46
2019-05-17T17:56:25.623Z,61.00
2019-05-17T17:58:55.554Z,61.96
2019-05-17T18:01:25.799Z,62.35
2019-05-17T18:03:56.121Z,62.67
2019-05-17T18:06:26.067Z,63.36
2019-05-17T18:11:36.007Z,63.55
2019-05-17T18:14:13.493Z,64.50
2019-05-17T18:16:36.055Z,64.71
2019-05-17T18:19:06.148Z,65.18
2019-05-17T18:24:15.820Z,66.30
2019-05-17T18:26:45.933Z,66.23
2019-05-17T18:29:16.151Z,66.20
2019-05-17T18:31:46.365Z,67.13
2019-05-17T18:34:16.582Z,67.61
2019-05-17T18:39:26.426Z,68.86
2019-05-17T18:41:56.674Z,69.26
2019-05-17T18:44:28.110Z,69.72
2019-05-17T18:49:36.419Z,71.66
2019-05-17T18:52:06.343Z,71.63
2019-05-17T18:54:36.284Z,72.17
2019-05-17T18:59:45.843Z,72.50
2019-05-17T19:02:16.140Z,72.80
2019-05-17T19:04:46.078Z,73.17
2019-05-17T19:07:16.292Z,73.22
2019-05-17T19:09:46.227Z,73.35
2019-05-17T19:12:16.188Z,73.42
2019-05-17T19:14:46.227Z,73.87
2019-05-17T19:17:16.065Z,73.95
2019-05-17T19:19:46.002Z,74.08
2019-05-17T19:22:16.194Z,74.33
2019-05-17T19:24:46.137Z,74.40
2019-05-17T19:27:16.055Z,74.77
2019-05-17T19:29:46.022Z,74.83
2019-05-17T19:34:55.574Z,74.23
2019-05-17T19:37:25.504Z,74.61
2019-05-17T19:39:55.701Z,74.88
2019-05-17T19:42:25.621Z,74.97
2019-05-17T19:44:58.968Z,75.22
2019-05-17T19:47:25.847Z,74.98
2019-05-17T19:52:35.365Z,75.28
2019-05-17T19:57:44.680Z,75.35
2019-05-17T20:00:14.616Z,75.51
2019-05-17T20:02:44.550Z,75.72
2019-05-17T20:05:14.484Z,75.69
2019-05-17T20:07:44.440Z,75.65
2019-05-17T20:10:14.681Z,76.10
2019-05-17T20:12:44.959Z,76.44
2019-05-17T20:15:17.626Z,76.56
2019-05-17T20:17:44.826Z,76.46
2019-05-17T20:20:15.022Z,76.58
2019-05-17T20:22:44.982Z,76.70
2019-05-17T20:27:54.823Z,76.44
2019-05-17T20:30:24.794Z,76.57
2019-05-17T20:32:54.713Z,76.62
2019-05-17T20:35:24.634Z,76.76
2019-05-17T20:37:54.578Z,76.92
2019-05-17T20:40:24.517Z,76.81
2019-05-17T20:42:54.614Z,76.83
2019-05-17T20:45:32.787Z,76.91
2019-05-17T20:47:54.788Z,77.06
2019-05-17T20:50:25.013Z,76.87
2019-05-17T20:52:55.243Z,76.74
2019-05-17T20:55:27.295Z,76.78
2019-05-17T20:57:55.094Z,76.91
2019-05-17T21:00:25.059Z,76.75
2019-05-17T21:02:55.290Z,76.73
2019-05-17T21:05:25.215Z,77.04
2019-05-17T21:07:55.163Z,77.04
2019-05-17T21:10:25.079Z,77.05
2019-05-17T21:12:55.010Z,77.24
2019-05-17T21:15:24.948Z,76.96
2019-05-17T21:17:54.890Z,76.99
2019-05-17T21:20:25.089Z,77.38
2019-05-17T21:22:55.042Z,77.84
2019-05-17T21:25:24.959Z,78.19
2019-05-17T21:27:55.254Z,78.02
2019-05-17T21:30:25.202Z,78.30
2019-05-17T21:32:55.137Z,78.30
2019-05-17T21:40:44.075Z,78.43
2019-05-17T21:46:03.325Z,78.26
2019-05-17T21:48:23.947Z,78.29
2019-05-17T21:53:33.207Z,78.62
2019-05-17T21:56:03.123Z,78.53
2019-05-17T21:58:33.047Z,78.43
2019-05-17T22:01:02.973Z,79.02
2019-05-17T22:06:12.594Z,79.69
2019-05-17T22:08:42.508Z,79.27
2019-05-17T22:11:12.445Z,78.71
2019-05-17T22:13:42.388Z,79.14
2019-05-17T22:16:19.663Z,79.11
2019-05-17T22:18:42.565Z,79.01
2019-05-17T22:21:12.492Z,78.97
2019-05-17T22:23:42.419Z,78.67
2019-05-17T22:28:52.074Z,79.26
2019-05-17T22:31:22.549Z,79.27
2019-05-17T22:33:52.306Z,79.46
2019-05-17T22:36:22.500Z,79.39
2019-05-17T22:38:52.717Z,80.15
2019-05-17T22:44:02.271Z,80.35
2019-05-17T22:46:35.904Z,80.19
2019-05-17T22:49:02.453Z,80.04
2019-05-17T22:51:32.361Z,80.08
2019-05-17T22:56:41.643Z,79.78
2019-05-17T22:59:11.831Z,80.42
2019-05-17T23:07:00.424Z,80.46
2019-05-17T23:09:30.356Z,80.62
2019-05-17T23:12:00.600Z,80.66
2019-05-17T23:14:30.830Z,80.55
2019-05-17T23:19:40.081Z,81.01
2019-05-17T23:22:09.988Z,80.54
2019-05-17T23:29:59.174Z,80.90
2019-05-17T23:32:29.107Z,80.19
2019-05-17T23:34:59.063Z,80.19
2019-05-17T23:37:28.956Z,79.97
2019-05-17T23:42:38.614Z,80.16
2019-05-17T23:45:08.537Z,80.48
2019-05-17T23:52:58.194Z,80.49
2019-05-17T23:55:28.141Z,80.63
2019-05-17T23:57:58.057Z,81.24
